sensor_id;sensor_type;location;lat;lon;timestamp;P1;durP1;ratioP1;P2;durP2;ratioP2
12348;SDS011;5974;42.710;27.258;2023-05-28T00:00:57;11.13;;;10.03;;
12348;SDS011;5974;42.710;27.258;2023-05-28T00:03:26;11.77;;;9.70;;
12348;SDS011;5974;42.710;27.258;2023-05-28T00:05:57;11.77;;;10.10;;
12348;SDS011;5974;42.710;27.258;2023-05-28T00:08:25;11.47;;;10.07;;
12348;SDS011;5974;42.710;27.258;2023-05-28T00:10:52;11.30;;;10.27;;
12348;SDS011;5974;42.710;27.258;2023-05-28T00:13:24;11.90;;;10.27;;
12348;SDS011;5974;42.710;27.258;2023-05-28T00:15:52;12.73;;;11.07;;
12348;SDS011;5974;42.710;27.258;2023-05-28T00:18:19;12.27;;;10.80;;
12348;SDS011;5974;42.710;27.258;2023-05-28T00:20:46;13.37;;;11.50;;
12348;SDS011;5974;42.710;27.258;2023-05-28T00:23:15;13.23;;;11.23;;
12348;SDS011;5974;42.710;27.258;2023-05-28T00:25:42;14.40;;;12.77;;
12348;SDS011;5974;42.710;27.258;2023-05-28T00:28:09;15.20;;;13.37;;
12348;SDS011;5974;42.710;27.258;2023-05-28T00:30:36;15.03;;;13.47;;
12348;SDS011;5974;42.710;27.258;2023-05-28T00:33:03;21.27;;;14.20;;
12348;SDS011;5974;42.710;27.258;2023-05-28T00:35:30;17.10;;;14.47;;
12348;SDS011;5974;42.710;27.258;2023-05-28T00:37:57;18.17;;;14.43;;
12348;SDS011;5974;42.710;27.258;2023-05-28T00:40:25;16.27;;;13.40;;
12348;SDS011;5974;42.710;27.258;2023-05-28T00:42:52;21.77;;;13.23;;
12348;SDS011;5974;42.710;27.258;2023-05-28T00:45:19;14.20;;;12.63;;
12348;SDS011;5974;42.710;27.258;2023-05-28T00:47:46;17.30;;;12.47;;
12348;SDS011;5974;42.710;27.258;2023-05-28T00:50:13;20.20;;;12.87;;
12348;SDS011;5974;42.710;27.258;2023-05-28T00:52:41;19.90;;;13.97;;
12348;SDS011;5974;42.710;27.258;2023-05-28T00:55:13;15.10;;;13.50;;
12348;SDS011;5974;42.710;27.258;2023-05-28T00:57:42;19.33;;;13.30;;
12348;SDS011;5974;42.710;27.258;2023-05-28T01:00:11;14.70;;;12.23;;
12348;SDS011;5974;42.710;27.258;2023-05-28T01:02:39;18.60;;;14.80;;
12348;SDS011;5974;42.710;27.258;2023-05-28T01:05:06;21.33;;;15.73;;
12348;SDS011;5974;42.710;27.258;2023-05-28T01:07:34;19.33;;;14.60;;
12348;SDS011;5974;42.710;27.258;2023-05-28T01:10:02;17.93;;;13.97;;
12348;SDS011;5974;42.710;27.258;2023-05-28T01:12:30;16.27;;;13.43;;
12348;SDS011;5974;42.710;27.258;2023-05-28T01:14:59;20.57;;;14.53;;
12348;SDS011;5974;42.710;27.258;2023-05-28T01:17:26;16.90;;;13.20;;
12348;SDS011;5974;42.710;27.258;2023-05-28T01:19:53;18.43;;;13.83;;
12348;SDS011;5974;42.710;27.258;2023-05-28T01:22:21;19.87;;;13.17;;
12348;SDS011;5974;42.710;27.258;2023-05-28T01:24:56;16.00;;;13.87;;
12348;SDS011;5974;42.710;27.258;2023-05-28T01:27:25;17.27;;;14.40;;
12348;SDS011;5974;42.710;27.258;2023-05-28T01:29:53;22.00;;;14.83;;
12348;SDS011;5974;42.710;27.258;2023-05-28T01:32:20;17.03;;;13.93;;
12348;SDS011;5974;42.710;27.258;2023-05-28T01:34:47;17.37;;;14.43;;
12348;SDS011;5974;42.710;27.258;2023-05-28T01:37:14;17.00;;;13.90;;
12348;SDS011;5974;42.710;27.258;2023-05-28T01:39:43;17.40;;;13.47;;
12348;SDS011;5974;42.710;27.258;2023-05-28T01:42:14;16.83;;;13.93;;
12348;SDS011;5974;42.710;27.258;2023-05-28T01:44:42;18.13;;;14.27;;
12348;SDS011;5974;42.710;27.258;2023-05-28T01:47:10;19.70;;;14.07;;
12348;SDS011;5974;42.710;27.258;2023-05-28T01:49:39;17.27;;;14.17;;
12348;SDS011;5974;42.710;27.258;2023-05-28T01:52:06;16.90;;;13.00;;
12348;SDS011;5974;42.710;27.258;2023-05-28T01:54:33;16.27;;;14.50;;
12348;SDS011;5974;42.710;27.258;2023-05-28T01:57:00;17.03;;;13.50;;
12348;SDS011;5974;42.710;27.258;2023-05-28T01:59:29;15.17;;;13.63;;
12348;SDS011;5974;42.710;27.258;2023-05-28T02:01:57;16.33;;;14.63;;
12348;SDS011;5974;42.710;27.258;2023-05-28T02:04:24;21.83;;;14.67;;
12348;SDS011;5974;42.710;27.258;2023-05-28T02:06:51;19.70;;;14.20;;
12348;SDS011;5974;42.710;27.258;2023-05-28T02:09:18;15.90;;;13.27;;
12348;SDS011;5974;42.710;27.258;2023-05-28T02:11:45;17.03;;;13.27;;
12348;SDS011;5974;42.710;27.258;2023-05-28T02:14:12;13.13;;;11.83;;
12348;SDS011;5974;42.710;27.258;2023-05-28T02:16:42;14.57;;;11.67;;
12348;SDS011;5974;42.710;27.258;2023-05-28T02:19:13;13.57;;;11.83;;
12348;SDS011;5974;42.710;27.258;2023-05-28T02:21:40;12.93;;;11.53;;
12348;SDS011;5974;42.710;27.258;2023-05-28T02:24:07;12.80;;;11.50;;
12348;SDS011;5974;42.710;27.258;2023-05-28T02:26:34;12.30;;;10.70;;
12348;SDS011;5974;42.710;27.258;2023-05-28T02:29:01;13.63;;;10.83;;
12348;SDS011;5974;42.710;27.258;2023-05-28T02:31:28;17.00;;;11.93;;
12348;SDS011;5974;42.710;27.258;2023-05-28T02:33:56;11.23;;;10.10;;
12348;SDS011;5974;42.710;27.258;2023-05-28T02:36:23;13.00;;;10.10;;
12348;SDS011;5974;42.710;27.258;2023-05-28T02:38:50;11.77;;;9.93;;
12348;SDS011;5974;42.710;27.258;2023-05-28T02:41:17;12.17;;;10.00;;
12348;SDS011;5974;42.710;27.258;2023-05-28T02:43:44;14.73;;;10.67;;
12348;SDS011;5974;42.710;27.258;2023-05-28T02:46:10;11.30;;;10.13;;
12348;SDS011;5974;42.710;27.258;2023-05-28T02:48:37;11.57;;;9.07;;
12348;SDS011;5974;42.710;27.258;2023-05-28T02:51:05;10.70;;;9.60;;
12348;SDS011;5974;42.710;27.258;2023-05-28T02:53:32;14.63;;;9.50;;
12348;SDS011;5974;42.710;27.258;2023-05-28T02:55:59;11.03;;;9.17;;
12348;SDS011;5974;42.710;27.258;2023-05-28T02:58:26;10.60;;;8.90;;
12348;SDS011;5974;42.710;27.258;2023-05-28T03:00:55;15.20;;;9.13;;
12348;SDS011;5974;42.710;27.258;2023-05-28T03:03:22;12.43;;;9.13;;
12348;SDS011;5974;42.710;27.258;2023-05-28T03:05:50;12.33;;;8.90;;
12348;SDS011;5974;42.710;27.258;2023-05-28T03:08:18;11.77;;;8.90;;
12348;SDS011;5974;42.710;27.258;2023-05-28T03:10:45;11.67;;;9.57;;
12348;SDS011;5974;42.710;27.258;2023-05-28T03:13:12;11.37;;;9.93;;
12348;SDS011;5974;42.710;27.258;2023-05-28T03:15:39;10.93;;;9.73;;
12348;SDS011;5974;42.710;27.258;2023-05-28T03:18:06;11.90;;;9.40;;
12348;SDS011;5974;42.710;27.258;2023-05-28T03:20:33;11.67;;;9.43;;
12348;SDS011;5974;42.710;27.258;2023-05-28T03:23:00;16.57;;;10.27;;
12348;SDS011;5974;42.710;27.258;2023-05-28T03:25:28;11.07;;;9.27;;
12348;SDS011;5974;42.710;27.258;2023-05-28T03:27:55;11.37;;;8.87;;
12348;SDS011;5974;42.710;27.258;2023-05-28T03:30:22;11.27;;;9.27;;
12348;SDS011;5974;42.710;27.258;2023-05-28T03:32:49;10.87;;;9.77;;
12348;SDS011;5974;42.710;27.258;2023-05-28T03:35:16;11.53;;;9.10;;
12348;SDS011;5974;42.710;27.258;2023-05-28T03:37:43;12.57;;;8.63;;
12348;SDS011;5974;42.710;27.258;2023-05-28T03:40:10;10.47;;;9.20;;
12348;SDS011;5974;42.710;27.258;2023-05-28T03:42:39;13.47;;;9.20;;
12348;SDS011;5974;42.710;27.258;2023-05-28T03:45:06;12.77;;;9.33;;
12348;SDS011;5974;42.710;27.258;2023-05-28T03:47:34;12.30;;;8.80;;
12348;SDS011;5974;42.710;27.258;2023-05-28T03:50:01;11.77;;;8.90;;
12348;SDS011;5974;42.710;27.258;2023-05-28T03:52:29;11.47;;;9.07;;
12348;SDS011;5974;42.710;27.258;2023-05-28T03:54:56;12.97;;;9.83;;
12348;SDS011;5974;42.710;27.258;2023-05-28T03:57:23;10.33;;;9.23;;
12348;SDS011;5974;42.710;27.258;2023-05-28T03:59:51;11.60;;;9.50;;
12348;SDS011;5974;42.710;27.258;2023-05-28T04:02:20;11.67;;;9.37;;
12348;SDS011;5974;42.710;27.258;2023-05-28T04:04:47;11.50;;;8.47;;
12348;SDS011;5974;42.710;27.258;2023-05-28T04:07:14;11.27;;;7.87;;
12348;SDS011;5974;42.710;27.258;2023-05-28T04:09:41;12.67;;;8.00;;
12348;SDS011;5974;42.710;27.258;2023-05-28T04:12:08;11.67;;;8.07;;
12348;SDS011;5974;42.710;27.258;2023-05-28T04:14:37;11.77;;;7.73;;
12348;SDS011;5974;42.710;27.258;2023-05-28T04:17:06;10.90;;;8.20;;
12348;SDS011;5974;42.710;27.258;2023-05-28T04:19:33;10.30;;;7.60;;
12348;SDS011;5974;42.710;27.258;2023-05-28T04:22:00;11.67;;;7.97;;
12348;SDS011;5974;42.710;27.258;2023-05-28T04:24:27;14.50;;;8.27;;
12348;SDS011;5974;42.710;27.258;2023-05-28T04:26:53;10.77;;;7.37;;
12348;SDS011;5974;42.710;27.258;2023-05-28T04:29:22;9.47;;;6.33;;
12348;SDS011;5974;42.710;27.258;2023-05-28T04:31:50;9.97;;;6.57;;
12348;SDS011;5974;42.710;27.258;2023-05-28T04:34:18;10.90;;;6.33;;
12348;SDS011;5974;42.710;27.258;2023-05-28T04:36:46;10.30;;;7.40;;
12348;SDS011;5974;42.710;27.258;2023-05-28T04:39:16;10.13;;;8.10;;
12348;SDS011;5974;42.710;27.258;2023-05-28T04:41:44;10.10;;;7.73;;
12348;SDS011;5974;42.710;27.258;2023-05-28T04:44:11;10.30;;;8.40;;
12348;SDS011;5974;42.710;27.258;2023-05-28T04:46:41;10.67;;;8.53;;
12348;SDS011;5974;42.710;27.258;2023-05-28T04:49:09;13.07;;;8.63;;
12348;SDS011;5974;42.710;27.258;2023-05-28T04:51:38;10.10;;;8.63;;
12348;SDS011;5974;42.710;27.258;2023-05-28T04:54:06;11.20;;;9.77;;
12348;SDS011;5974;42.710;27.258;2023-05-28T04:56:32;12.93;;;9.73;;
12348;SDS011;5974;42.710;27.258;2023-05-28T04:59:00;12.23;;;9.77;;
12348;SDS011;5974;42.710;27.258;2023-05-28T05:01:30;11.90;;;9.90;;
12348;SDS011;5974;42.710;27.258;2023-05-28T05:03:57;16.57;;;10.60;;
12348;SDS011;5974;42.710;27.258;2023-05-28T05:06:24;13.10;;;10.30;;
12348;SDS011;5974;42.710;27.258;2023-05-28T05:08:52;11.23;;;10.03;;
12348;SDS011;5974;42.710;27.258;2023-05-28T05:11:19;11.63;;;10.40;;
12348;SDS011;5974;42.710;27.258;2023-05-28T05:13:46;14.30;;;10.80;;
12348;SDS011;5974;42.710;27.258;2023-05-28T05:16:13;12.07;;;9.70;;
12348;SDS011;5974;42.710;27.258;2023-05-28T05:18:41;13.60;;;10.83;;
12348;SDS011;5974;42.710;27.258;2023-05-28T05:21:08;15.30;;;10.50;;
12348;SDS011;5974;42.710;27.258;2023-05-28T05:23:38;10.83;;;9.70;;
12348;SDS011;5974;42.710;27.258;2023-05-28T05:26:06;15.93;;;10.37;;
12348;SDS011;5974;42.710;27.258;2023-05-28T05:28:34;12.83;;;10.13;;
12348;SDS011;5974;42.710;27.258;2023-05-28T05:31:02;12.20;;;10.03;;
12348;SDS011;5974;42.710;27.258;2023-05-28T05:33:29;15.00;;;10.23;;
12348;SDS011;5974;42.710;27.258;2023-05-28T05:35:55;10.23;;;9.30;;
12348;SDS011;5974;42.710;27.258;2023-05-28T05:38:22;11.40;;;9.67;;
12348;SDS011;5974;42.710;27.258;2023-05-28T05:40:50;10.90;;;9.10;;
12348;SDS011;5974;42.710;27.258;2023-05-28T05:43:19;14.10;;;9.30;;
12348;SDS011;5974;42.710;27.258;2023-05-28T05:45:45;12.47;;;8.93;;
12348;SDS011;5974;42.710;27.258;2023-05-28T05:48:12;9.30;;;8.17;;
12348;SDS011;5974;42.710;27.258;2023-05-28T05:50:48;9.60;;;8.37;;
12348;SDS011;5974;42.710;27.258;2023-05-28T05:53:16;10.93;;;7.77;;
12348;SDS011;5974;42.710;27.258;2023-05-28T05:55:43;11.33;;;8.30;;
12348;SDS011;5974;42.710;27.258;2023-05-28T05:58:10;9.60;;;8.00;;
12348;SDS011;5974;42.710;27.258;2023-05-28T06:00:38;15.60;;;8.40;;
12348;SDS011;5974;42.710;27.258;2023-05-28T06:03:06;15.57;;;8.73;;
12348;SDS011;5974;42.710;27.258;2023-05-28T06:05:33;8.73;;;7.83;;
12348;SDS011;5974;42.710;27.258;2023-05-28T06:08:00;13.80;;;8.00;;
12348;SDS011;5974;42.710;27.258;2023-05-28T06:10:27;8.93;;;7.60;;
12348;SDS011;5974;42.710;27.258;2023-05-28T06:12:54;8.60;;;7.70;;
12348;SDS011;5974;42.710;27.258;2023-05-28T06:15:21;11.37;;;7.30;;
12348;SDS011;5974;42.710;27.258;2023-05-28T06:17:51;8.63;;;7.37;;
12348;SDS011;5974;42.710;27.258;2023-05-28T06:20:18;10.03;;;7.50;;
12348;SDS011;5974;42.710;27.258;2023-05-28T06:22:45;8.43;;;6.90;;
12348;SDS011;5974;42.710;27.258;2023-05-28T06:25:12;8.13;;;6.73;;
12348;SDS011;5974;42.710;27.258;2023-05-28T06:27:39;11.17;;;6.70;;
12348;SDS011;5974;42.710;27.258;2023-05-28T06:30:07;10.40;;;5.70;;
12348;SDS011;5974;42.710;27.258;2023-05-28T06:32:35;10.20;;;5.87;;
12348;SDS011;5974;42.710;27.258;2023-05-28T06:35:03;10.50;;;5.90;;
12348;SDS011;5974;42.710;27.258;2023-05-28T06:37:30;9.83;;;7.47;;
12348;SDS011;5974;42.710;27.258;2023-05-28T06:39:57;6.97;;;5.50;;
12348;SDS011;5974;42.710;27.258;2023-05-28T06:42:24;5.97;;;5.30;;
12348;SDS011;5974;42.710;27.258;2023-05-28T06:44:51;7.67;;;4.90;;
12348;SDS011;5974;42.710;27.258;2023-05-28T06:47:18;9.17;;;5.17;;
12348;SDS011;5974;42.710;27.258;2023-05-28T06:49:46;12.33;;;5.80;;
12348;SDS011;5974;42.710;27.258;2023-05-28T06:52:14;7.00;;;5.27;;
12348;SDS011;5974;42.710;27.258;2023-05-28T06:54:41;6.43;;;5.47;;
12348;SDS011;5974;42.710;27.258;2023-05-28T06:57:08;7.90;;;5.77;;
12348;SDS011;5974;42.710;27.258;2023-05-28T06:59:35;9.97;;;5.87;;
12348;SDS011;5974;42.710;27.258;2023-05-28T07:02:02;7.87;;;5.70;;
12348;SDS011;5974;42.710;27.258;2023-05-28T07:04:30;8.90;;;5.73;;
12348;SDS011;5974;42.710;27.258;2023-05-28T07:06:57;11.17;;;5.87;;
12348;SDS011;5974;42.710;27.258;2023-05-28T07:09:25;7.67;;;5.70;;
12348;SDS011;5974;42.710;27.258;2023-05-28T07:11:52;8.40;;;5.23;;
12348;SDS011;5974;42.710;27.258;2023-05-28T07:14:19;8.67;;;5.23;;
12348;SDS011;5974;42.710;27.258;2023-05-28T07:16:46;5.27;;;4.70;;
12348;SDS011;5974;42.710;27.258;2023-05-28T07:19:13;7.23;;;4.77;;
12348;SDS011;5974;42.710;27.258;2023-05-28T07:21:40;9.07;;;4.80;;
12348;SDS011;5974;42.710;27.258;2023-05-28T07:24:07;8.50;;;4.43;;
12348;SDS011;5974;42.710;27.258;2023-05-28T07:26:35;7.00;;;4.37;;
12348;SDS011;5974;42.710;27.258;2023-05-28T07:29:02;7.50;;;4.93;;
12348;SDS011;5974;42.710;27.258;2023-05-28T07:31:29;9.50;;;5.00;;
12348;SDS011;5974;42.710;27.258;2023-05-28T07:33:56;11.83;;;8.63;;
12348;SDS011;5974;42.710;27.258;2023-05-28T07:36:24;6.70;;;4.57;;
12348;SDS011;5974;42.710;27.258;2023-05-28T07:38:51;7.83;;;4.77;;
12348;SDS011;5974;42.710;27.258;2023-05-28T07:41:17;8.33;;;4.40;;
12348;SDS011;5974;42.710;27.258;2023-05-28T07:43:47;10.20;;;4.83;;
12348;SDS011;5974;42.710;27.258;2023-05-28T07:46:15;7.25;;;4.60;;
12348;SDS011;5974;42.710;27.258;2023-05-28T07:48:43;10.27;;;5.67;;
12348;SDS011;5974;42.710;27.258;2023-05-28T07:51:10;8.07;;;5.53;;
12348;SDS011;5974;42.710;27.258;2023-05-28T07:53:37;7.33;;;4.93;;
12348;SDS011;5974;42.710;27.258;2023-05-28T07:56:04;7.43;;;4.87;;
12348;SDS011;5974;42.710;27.258;2023-05-28T07:58:32;7.67;;;4.83;;
12348;SDS011;5974;42.710;27.258;2023-05-28T08:01:00;8.73;;;4.70;;
12348;SDS011;5974;42.710;27.258;2023-05-28T08:03:27;7.77;;;4.77;;
12348;SDS011;5974;42.710;27.258;2023-05-28T08:05:54;6.53;;;5.40;;
12348;SDS011;5974;42.710;27.258;2023-05-28T08:08:21;6.63;;;5.03;;
12348;SDS011;5974;42.710;27.258;2023-05-28T08:10:47;4.93;;;4.30;;
12348;SDS011;5974;42.710;27.258;2023-05-28T08:13:15;7.03;;;4.83;;
12348;SDS011;5974;42.710;27.258;2023-05-28T08:15:42;4.80;;;4.40;;
12348;SDS011;5974;42.710;27.258;2023-05-28T08:18:11;10.77;;;4.83;;
12348;SDS011;5974;42.710;27.258;2023-05-28T08:20:38;8.40;;;5.07;;
12348;SDS011;5974;42.710;27.258;2023-05-28T08:23:05;6.57;;;4.90;;
12348;SDS011;5974;42.710;27.258;2023-05-28T08:25:31;6.47;;;4.73;;
12348;SDS011;5974;42.710;27.258;2023-05-28T08:27:58;6.53;;;4.53;;
12348;SDS011;5974;42.710;27.258;2023-05-28T08:30:25;8.87;;;4.90;;
12348;SDS011;5974;42.710;27.258;2023-05-28T08:32:52;8.00;;;5.00;;
12348;SDS011;5974;42.710;27.258;2023-05-28T08:35:20;5.60;;;4.43;;
12348;SDS011;5974;42.710;27.258;2023-05-28T08:37:47;10.70;;;6.00;;
12348;SDS011;5974;42.710;27.258;2023-05-28T08:40:14;9.40;;;4.97;;
12348;SDS011;5974;42.710;27.258;2023-05-28T08:42:41;6.87;;;5.03;;
12348;SDS011;5974;42.710;27.258;2023-05-28T08:45:09;10.23;;;5.40;;
12348;SDS011;5974;42.710;27.258;2023-05-28T08:47:36;10.77;;;5.70;;
12348;SDS011;5974;42.710;27.258;2023-05-28T08:50:04;9.67;;;5.27;;
12348;SDS011;5974;42.710;27.258;2023-05-28T08:52:34;9.17;;;5.10;;
12348;SDS011;5974;42.710;27.258;2023-05-28T08:55:01;9.80;;;5.77;;
12348;SDS011;5974;42.710;27.258;2023-05-28T08:57:29;9.03;;;5.30;;
12348;SDS011;5974;42.710;27.258;2023-05-28T08:59:57;14.00;;;5.97;;
12348;SDS011;5974;42.710;27.258;2023-05-28T09:02:25;8.07;;;6.10;;
12348;SDS011;5974;42.710;27.258;2023-05-28T09:04:52;7.87;;;5.87;;
12348;SDS011;5974;42.710;27.258;2023-05-28T09:07:22;8.90;;;5.67;;
12348;SDS011;5974;42.710;27.258;2023-05-28T09:09:50;8.70;;;5.63;;
12348;SDS011;5974;42.710;27.258;2023-05-28T09:12:19;8.20;;;5.43;;
12348;SDS011;5974;42.710;27.258;2023-05-28T09:14:49;7.73;;;5.03;;
12348;SDS011;5974;42.710;27.258;2023-05-28T09:17:17;8.30;;;5.27;;
12348;SDS011;5974;42.710;27.258;2023-05-28T09:19:57;7.77;;;5.07;;
12348;SDS011;5974;42.710;27.258;2023-05-28T09:22:26;9.20;;;5.47;;
12348;SDS011;5974;42.710;27.258;2023-05-28T09:24:54;7.60;;;5.30;;
12348;SDS011;5974;42.710;27.258;2023-05-28T09:27:21;6.90;;;4.50;;
12348;SDS011;5974;42.710;27.258;2023-05-28T09:29:48;10.43;;;4.83;;
12348;SDS011;5974;42.710;27.258;2023-05-28T09:32:17;5.70;;;4.03;;
12348;SDS011;5974;42.710;27.258;2023-05-28T09:34:45;7.20;;;4.13;;
12348;SDS011;5974;42.710;27.258;2023-05-28T09:37:16;5.83;;;4.40;;
12348;SDS011;5974;42.710;27.258;2023-05-28T09:39:43;5.07;;;4.23;;
12348;SDS011;5974;42.710;27.258;2023-05-28T09:42:12;8.93;;;5.07;;
12348;SDS011;5974;42.710;27.258;2023-05-28T09:44:39;6.93;;;4.00;;
12348;SDS011;5974;42.710;27.258;2023-05-28T09:47:13;5.50;;;4.07;;
12348;SDS011;5974;42.710;27.258;2023-05-28T09:49:41;6.47;;;4.17;;
12348;SDS011;5974;42.710;27.258;2023-05-28T09:52:09;7.73;;;4.10;;
12348;SDS011;5974;42.710;27.258;2023-05-28T09:54:43;9.60;;;5.43;;
12348;SDS011;5974;42.710;27.258;2023-05-28T09:57:13;6.17;;;4.27;;
12348;SDS011;5974;42.710;27.258;2023-05-28T09:59:41;6.50;;;4.47;;
12348;SDS011;5974;42.710;27.258;2023-05-28T10:02:22;10.27;;;4.63;;
12348;SDS011;5974;42.710;27.258;2023-05-28T10:04:54;10.13;;;5.20;;
12348;SDS011;5974;42.710;27.258;2023-05-28T10:07:27;7.33;;;4.97;;
12348;SDS011;5974;42.710;27.258;2023-05-28T10:09:55;10.50;;;4.57;;
12348;SDS011;5974;42.710;27.258;2023-05-28T10:12:28;9.57;;;5.17;;
12348;SDS011;5974;42.710;27.258;2023-05-28T10:14:57;5.17;;;4.47;;
12348;SDS011;5974;42.710;27.258;2023-05-28T10:17:24;7.17;;;4.63;;
12348;SDS011;5974;42.710;27.258;2023-05-28T10:19:52;9.10;;;4.80;;
12348;SDS011;5974;42.710;27.258;2023-05-28T10:22:19;11.20;;;5.27;;
12348;SDS011;5974;42.710;27.258;2023-05-28T10:24:46;7.97;;;5.03;;
12348;SDS011;5974;42.710;27.258;2023-05-28T10:27:15;7.07;;;4.53;;
12348;SDS011;5974;42.710;27.258;2023-05-28T10:29:45;7.20;;;4.70;;
12348;SDS011;5974;42.710;27.258;2023-05-28T10:32:13;10.00;;;4.40;;
12348;SDS011;5974;42.710;27.258;2023-05-28T10:34:42;8.73;;;4.33;;
12348;SDS011;5974;42.710;27.258;2023-05-28T10:37:09;6.20;;;4.33;;
12348;SDS011;5974;42.710;27.258;2023-05-28T10:39:38;8.70;;;4.80;;
12348;SDS011;5974;42.710;27.258;2023-05-28T10:42:06;7.57;;;5.17;;
12348;SDS011;5974;42.710;27.258;2023-05-28T10:45:04;7.03;;;5.20;;
12348;SDS011;5974;42.710;27.258;2023-05-28T10:47:32;11.03;;;6.90;;
12348;SDS011;5974;42.710;27.258;2023-05-28T10:50:00;8.57;;;5.80;;
12348;SDS011;5974;42.710;27.258;2023-05-28T10:52:37;10.47;;;3.90;;
12348;SDS011;5974;42.710;27.258;2023-05-28T10:55:04;7.93;;;3.50;;
12348;SDS011;5974;42.710;27.258;2023-05-28T10:57:40;4.90;;;3.90;;
12348;SDS011;5974;42.710;27.258;2023-05-28T11:00:10;5.93;;;3.47;;
12348;SDS011;5974;42.710;27.258;2023-05-28T11:02:39;7.10;;;4.30;;
12348;SDS011;5974;42.710;27.258;2023-05-28T11:05:07;6.70;;;3.77;;
12348;SDS011;5974;42.710;27.258;2023-05-28T11:07:35;5.80;;;4.03;;
12348;SDS011;5974;42.710;27.258;2023-05-28T11:10:03;4.83;;;3.70;;
12348;SDS011;5974;42.710;27.258;2023-05-28T11:12:32;5.70;;;4.17;;
12348;SDS011;5974;42.710;27.258;2023-05-28T11:15:03;10.00;;;4.10;;
12348;SDS011;5974;42.710;27.258;2023-05-28T11:17:36;6.60;;;4.40;;
12348;SDS011;5974;42.710;27.258;2023-05-28T11:20:04;10.67;;;4.40;;
12348;SDS011;5974;42.710;27.258;2023-05-28T11:22:33;9.40;;;4.40;;
12348;SDS011;5974;42.710;27.258;2023-05-28T11:25:03;8.13;;;4.23;;
12348;SDS011;5974;42.710;27.258;2023-05-28T11:27:31;10.57;;;4.90;;
12348;SDS011;5974;42.710;27.258;2023-05-28T11:30:00;6.57;;;4.60;;
12348;SDS011;5974;42.710;27.258;2023-05-28T11:32:31;9.90;;;5.00;;
12348;SDS011;5974;42.710;27.258;2023-05-28T11:35:00;8.27;;;4.67;;
12348;SDS011;5974;42.710;27.258;2023-05-28T11:37:29;7.00;;;4.67;;
12348;SDS011;5974;42.710;27.258;2023-05-28T11:39:57;8.57;;;4.50;;
12348;SDS011;5974;42.710;27.258;2023-05-28T11:42:26;13.20;;;5.37;;
12348;SDS011;5974;42.710;27.258;2023-05-28T11:44:53;8.30;;;5.23;;
12348;SDS011;5974;42.710;27.258;2023-05-28T11:47:21;8.70;;;4.83;;
12348;SDS011;5974;42.710;27.258;2023-05-28T11:49:49;7.73;;;4.43;;
12348;SDS011;5974;42.710;27.258;2023-05-28T11:52:18;10.13;;;4.90;;
12348;SDS011;5974;42.710;27.258;2023-05-28T11:54:46;10.47;;;4.90;;
12348;SDS011;5974;42.710;27.258;2023-05-28T11:57:19;8.50;;;5.23;;
12348;SDS011;5974;42.710;27.258;2023-05-28T11:59:55;8.87;;;6.43;;
12348;SDS011;5974;42.710;27.258;2023-05-28T12:02:25;9.10;;;6.33;;
12348;SDS011;5974;42.710;27.258;2023-05-28T12:04:55;8.33;;;4.77;;
12348;SDS011;5974;42.710;27.258;2023-05-28T12:07:26;7.97;;;5.00;;
12348;SDS011;5974;42.710;27.258;2023-05-28T12:10:01;7.47;;;4.90;;
12348;SDS011;5974;42.710;27.258;2023-05-28T12:12:32;6.40;;;4.50;;
12348;SDS011;5974;42.710;27.258;2023-05-28T12:15:00;6.50;;;4.10;;
12348;SDS011;5974;42.710;27.258;2023-05-28T12:17:33;9.13;;;4.83;;
12348;SDS011;5974;42.710;27.258;2023-05-28T12:20:03;9.03;;;4.57;;
12348;SDS011;5974;42.710;27.258;2023-05-28T12:22:33;8.73;;;4.70;;
12348;SDS011;5974;42.710;27.258;2023-05-28T12:25:00;10.93;;;5.10;;
12348;SDS011;5974;42.710;27.258;2023-05-28T12:27:28;6.40;;;4.70;;
12348;SDS011;5974;42.710;27.258;2023-05-28T12:29:55;6.80;;;4.77;;
12348;SDS011;5974;42.710;27.258;2023-05-28T12:32:22;6.83;;;4.10;;
12348;SDS011;5974;42.710;27.258;2023-05-28T12:34:49;7.00;;;4.63;;
12348;SDS011;5974;42.710;27.258;2023-05-28T12:37:16;6.57;;;4.67;;
12348;SDS011;5974;42.710;27.258;2023-05-28T12:39:45;5.93;;;4.37;;
12348;SDS011;5974;42.710;27.258;2023-05-28T12:42:12;8.20;;;4.93;;
12348;SDS011;5974;42.710;27.258;2023-05-28T12:44:38;8.47;;;4.90;;
12348;SDS011;5974;42.710;27.258;2023-05-28T12:47:05;10.93;;;5.03;;
12348;SDS011;5974;42.710;27.258;2023-05-28T12:49:32;7.53;;;4.50;;
12348;SDS011;5974;42.710;27.258;2023-05-28T12:51:59;10.60;;;4.60;;
12348;SDS011;5974;42.710;27.258;2023-05-28T12:54:26;8.37;;;4.47;;
12348;SDS011;5974;42.710;27.258;2023-05-28T12:56:54;5.83;;;4.33;;
12348;SDS011;5974;42.710;27.258;2023-05-28T12:59:21;6.87;;;4.43;;
12348;SDS011;5974;42.710;27.258;2023-05-28T13:01:48;7.20;;;4.67;;
12348;SDS011;5974;42.710;27.258;2023-05-28T13:04:16;6.10;;;4.40;;
12348;SDS011;5974;42.710;27.258;2023-05-28T13:06:43;9.57;;;5.37;;
12348;SDS011;5974;42.710;27.258;2023-05-28T13:09:11;6.50;;;4.50;;
12348;SDS011;5974;42.710;27.258;2023-05-28T13:11:38;4.87;;;4.17;;
12348;SDS011;5974;42.710;27.258;2023-05-28T13:14:07;6.77;;;4.57;;
12348;SDS011;5974;42.710;27.258;2023-05-28T13:16:34;6.80;;;4.17;;
12348;SDS011;5974;42.710;27.258;2023-05-28T13:19:02;7.67;;;4.63;;
12348;SDS011;5974;42.710;27.258;2023-05-28T13:21:29;10.50;;;5.23;;
12348;SDS011;5974;42.710;27.258;2023-05-28T13:23:57;8.07;;;4.57;;
12348;SDS011;5974;42.710;27.258;2023-05-28T13:26:26;7.00;;;4.87;;
12348;SDS011;5974;42.710;27.258;2023-05-28T13:28:53;7.00;;;5.00;;
12348;SDS011;5974;42.710;27.258;2023-05-28T13:31:21;8.30;;;4.43;;
12348;SDS011;5974;42.710;27.258;2023-05-28T13:33:48;6.60;;;4.37;;
12348;SDS011;5974;42.710;27.258;2023-05-28T13:36:15;7.07;;;4.17;;
12348;SDS011;5974;42.710;27.258;2023-05-28T13:38:42;9.23;;;4.80;;
12348;SDS011;5974;42.710;27.258;2023-05-28T13:41:13;13.23;;;4.57;;
12348;SDS011;5974;42.710;27.258;2023-05-28T13:43:40;8.13;;;4.50;;
12348;SDS011;5974;42.710;27.258;2023-05-28T13:46:07;8.13;;;5.30;;
12348;SDS011;5974;42.710;27.258;2023-05-28T13:48:36;9.90;;;4.47;;
12348;SDS011;5974;42.710;27.258;2023-05-28T13:51:04;7.13;;;4.50;;
12348;SDS011;5974;42.710;27.258;2023-05-28T13:53:33;6.93;;;4.53;;
12348;SDS011;5974;42.710;27.258;2023-05-28T13:56:00;8.50;;;4.27;;
12348;SDS011;5974;42.710;27.258;2023-05-28T13:58:27;7.67;;;4.07;;
12348;SDS011;5974;42.710;27.258;2023-05-28T14:00:54;5.47;;;4.50;;
12348;SDS011;5974;42.710;27.258;2023-05-28T14:03:21;10.60;;;4.50;;
12348;SDS011;5974;42.710;27.258;2023-05-28T14:05:49;6.97;;;4.27;;
12348;SDS011;5974;42.710;27.258;2023-05-28T14:08:16;7.90;;;4.80;;
12348;SDS011;5974;42.710;27.258;2023-05-28T14:10:43;7.43;;;4.70;;
12348;SDS011;5974;42.710;27.258;2023-05-28T14:13:10;6.07;;;4.10;;
12348;SDS011;5974;42.710;27.258;2023-05-28T14:15:37;5.80;;;4.30;;
12348;SDS011;5974;42.710;27.258;2023-05-28T14:18:04;8.60;;;4.23;;
12348;SDS011;5974;42.710;27.258;2023-05-28T14:20:31;9.03;;;4.57;;
12348;SDS011;5974;42.710;27.258;2023-05-28T14:23:02;5.40;;;4.33;;
12348;SDS011;5974;42.710;27.258;2023-05-28T14:25:29;7.40;;;4.57;;
12348;SDS011;5974;42.710;27.258;2023-05-28T14:27:56;6.03;;;4.60;;
12348;SDS011;5974;42.710;27.258;2023-05-28T14:30:23;10.10;;;3.90;;
12348;SDS011;5974;42.710;27.258;2023-05-28T14:32:50;6.93;;;4.40;;
12348;SDS011;5974;42.710;27.258;2023-05-28T14:35:17;7.50;;;4.63;;
12348;SDS011;5974;42.710;27.258;2023-05-28T14:37:46;6.77;;;5.87;;
12348;SDS011;5974;42.710;27.258;2023-05-28T14:40:16;7.90;;;4.43;;
12348;SDS011;5974;42.710;27.258;2023-05-28T14:42:43;8.80;;;4.37;;